sensor_id;sensor_type;location;lat;lon;timestamp;P1;durP1;ratioP1;P2;durP2;ratioP2
7497;SDS011;3790;48.806;9.140;2023-04-25T00:02:28;1.27;;;0.60;;
7497;SDS011;3790;48.806;9.140;2023-04-25T00:07:29;0.70;;;0.50;;
7497;SDS011;3790;48.806;9.140;2023-04-25T00:12:29;1.70;;;0.60;;
7497;SDS011;3790;48.806;9.140;2023-04-25T00:17:30;1.47;;;0.63;;
7497;SDS011;3790;48.806;9.140;2023-04-25T00:22:31;1.17;;;0.70;;
7497;SDS011;3790;48.806;9.140;2023-04-25T00:27:33;1.37;;;0.70;;
7497;SDS011;3790;48.806;9.140;2023-04-25T00:32:34;2.27;;;0.90;;
7497;SDS011;3790;48.806;9.140;2023-04-25T00:37:34;6.93;;;1.00;;
7497;SDS011;3790;48.806;9.140;2023-04-25T00:42:35;1.50;;;0.70;;
7497;SDS011;3790;48.806;9.140;2023-04-25T00:47:36;2.20;;;1.13;;
7497;SDS011;3790;48.806;9.140;2023-04-25T00:52:39;1.63;;;0.83;;
7497;SDS011;3790;48.806;9.140;2023-04-25T00:57:42;1.60;;;0.83;;
7497;SDS011;3790;48.806;9.140;2023-04-25T01:02:43;4.20;;;1.37;;
7497;SDS011;3790;48.806;9.140;2023-04-25T01:07:45;1.60;;;0.60;;
7497;SDS011;3790;48.806;9.140;2023-04-25T01:12:45;1.23;;;0.63;;
7497;SDS011;3790;48.806;9.140;2023-04-25T01:17:46;3.90;;;1.23;;
7497;SDS011;3790;48.806;9.140;2023-04-25T01:22:50;2.53;;;1.20;;
7497;SDS011;3790;48.806;9.140;2023-04-25T01:27:51;1.83;;;1.17;;
7497;SDS011;3790;48.806;9.140;2023-04-25T01:32:53;1.60;;;1.10;;
7497;SDS011;3790;48.806;9.140;2023-04-25T01:37:58;1.97;;;0.90;;
7497;SDS011;3790;48.806;9.140;2023-04-25T01:42:59;2.03;;;1.03;;
7497;SDS011;3790;48.806;9.140;2023-04-25T01:48:00;1.60;;;1.00;;
7497;SDS011;3790;48.806;9.140;2023-04-25T01:53:00;2.50;;;1.30;;
7497;SDS011;3790;48.806;9.140;2023-04-25T01:58:02;1.53;;;0.90;;
7497;SDS011;3790;48.806;9.140;2023-04-25T02:03:03;2.60;;;1.33;;
7497;SDS011;3790;48.806;9.140;2023-04-25T02:08:04;1.77;;;0.97;;
7497;SDS011;3790;48.806;9.140;2023-04-25T02:13:07;1.40;;;0.90;;
7497;SDS011;3790;48.806;9.140;2023-04-25T02:18:07;2.27;;;0.80;;
7497;SDS011;3790;48.806;9.140;2023-04-25T02:23:10;2.57;;;1.30;;
7497;SDS011;3790;48.806;9.140;2023-04-25T02:28:11;3.63;;;1.37;;
7497;SDS011;3790;48.806;9.140;2023-04-25T02:33:11;2.10;;;1.10;;
7497;SDS011;3790;48.806;9.140;2023-04-25T02:38:12;1.90;;;1.03;;
7497;SDS011;3790;48.806;9.140;2023-04-25T02:43:12;2.83;;;1.17;;
7497;SDS011;3790;48.806;9.140;2023-04-25T02:48:13;2.43;;;0.97;;
7497;SDS011;3790;48.806;9.140;2023-04-25T02:53:13;6.43;;;1.17;;
7497;SDS011;3790;48.806;9.140;2023-04-25T02:58:15;1.80;;;0.90;;
7497;SDS011;3790;48.806;9.140;2023-04-25T03:03:15;1.63;;;1.07;;
7497;SDS011;3790;48.806;9.140;2023-04-25T03:08:17;1.13;;;0.70;;
7497;SDS011;3790;48.806;9.140;2023-04-25T03:13:18;2.57;;;1.20;;
7497;SDS011;3790;48.806;9.140;2023-04-25T03:18:19;2.00;;;0.90;;
7497;SDS011;3790;48.806;9.140;2023-04-25T03:23:20;1.80;;;1.00;;
7497;SDS011;3790;48.806;9.140;2023-04-25T03:28:21;1.87;;;1.10;;
7497;SDS011;3790;48.806;9.140;2023-04-25T03:33:22;2.33;;;1.17;;
7497;SDS011;3790;48.806;9.140;2023-04-25T03:38:22;1.83;;;1.00;;
7497;SDS011;3790;48.806;9.140;2023-04-25T03:43:23;1.30;;;0.77;;
7497;SDS011;3790;48.806;9.140;2023-04-25T03:48:23;1.50;;;0.90;;
7497;SDS011;3790;48.806;9.140;2023-04-25T03:53:25;2.10;;;1.07;;
7497;SDS011;3790;48.806;9.140;2023-04-25T03:58:26;2.83;;;1.10;;
7497;SDS011;3790;48.806;9.140;2023-04-25T04:03:26;2.37;;;1.20;;
7497;SDS011;3790;48.806;9.140;2023-04-25T04:08:27;1.93;;;1.30;;
7497;SDS011;3790;48.806;9.140;2023-04-25T04:13:28;1.97;;;1.17;;
7497;SDS011;3790;48.806;9.140;2023-04-25T04:18:29;3.30;;;1.40;;
7497;SDS011;3790;48.806;9.140;2023-04-25T04:23:30;1.90;;;1.10;;
7497;SDS011;3790;48.806;9.140;2023-04-25T04:28:31;2.20;;;1.07;;
7497;SDS011;3790;48.806;9.140;2023-04-25T04:33:31;2.60;;;1.00;;
7497;SDS011;3790;48.806;9.140;2023-04-25T04:38:32;2.47;;;1.10;;
7497;SDS011;3790;48.806;9.140;2023-04-25T04:43:32;2.43;;;1.27;;
7497;SDS011;3790;48.806;9.140;2023-04-25T04:48:33;2.33;;;1.30;;
7497;SDS011;3790;48.806;9.140;2023-04-25T04:53:34;2.63;;;1.27;;
7497;SDS011;3790;48.806;9.140;2023-04-25T04:58:34;2.30;;;1.33;;
7497;SDS011;3790;48.806;9.140;2023-04-25T05:03:36;3.30;;;1.50;;
7497;SDS011;3790;48.806;9.140;2023-04-25T05:08:37;5.40;;;1.70;;
7497;SDS011;3790;48.806;9.140;2023-04-25T05:13:37;3.37;;;1.67;;
7497;SDS011;3790;48.806;9.140;2023-04-25T05:18:38;2.27;;;1.50;;
7497;SDS011;3790;48.806;9.140;2023-04-25T05:23:39;1.90;;;1.20;;
7497;SDS011;3790;48.806;9.140;2023-04-25T05:28:40;2.13;;;1.30;;
7497;SDS011;3790;48.806;9.140;2023-04-25T05:33:41;2.80;;;1.87;;
7497;SDS011;3790;48.806;9.140;2023-04-25T05:38:42;2.10;;;1.40;;
7497;SDS011;3790;48.806;9.140;2023-04-25T05:43:42;3.77;;;2.07;;
7497;SDS011;3790;48.806;9.140;2023-04-25T05:48:46;2.60;;;1.50;;
7497;SDS011;3790;48.806;9.140;2023-04-25T05:53:47;3.23;;;1.70;;
7497;SDS011;3790;48.806;9.140;2023-04-25T05:58:47;2.57;;;1.57;;
7497;SDS011;3790;48.806;9.140;2023-04-25T06:03:48;2.93;;;1.53;;
7497;SDS011;3790;48.806;9.140;2023-04-25T06:08:49;1.53;;;1.00;;
7497;SDS011;3790;48.806;9.140;2023-04-25T06:13:50;2.77;;;1.77;;
7497;SDS011;3790;48.806;9.140;2023-04-25T06:18:50;2.50;;;1.30;;
7497;SDS011;3790;48.806;9.140;2023-04-25T06:23:51;2.40;;;1.10;;
7497;SDS011;3790;48.806;9.140;2023-04-25T06:28:51;2.57;;;1.50;;
7497;SDS011;3790;48.806;9.140;2023-04-25T06:33:52;1.73;;;1.10;;
7497;SDS011;3790;48.806;9.140;2023-04-25T06:38:54;2.63;;;1.83;;
7497;SDS011;3790;48.806;9.140;2023-04-25T06:43:55;2.30;;;1.70;;
7497;SDS011;3790;48.806;9.140;2023-04-25T06:48:55;2.67;;;1.57;;
7497;SDS011;3790;48.806;9.140;2023-04-25T06:53:56;3.27;;;1.57;;
7497;SDS011;3790;48.806;9.140;2023-04-25T06:58:56;2.07;;;1.30;;
7497;SDS011;3790;48.806;9.140;2023-04-25T07:03:57;1.90;;;1.50;;
7497;SDS011;3790;48.806;9.140;2023-04-25T07:08:57;3.40;;;2.27;;
7497;SDS011;3790;48.806;9.140;2023-04-25T07:13:58;3.83;;;1.47;;
7497;SDS011;3790;48.806;9.140;2023-04-25T07:18:58;5.17;;;1.80;;
7497;SDS011;3790;48.806;9.140;2023-04-25T07:23:59;2.33;;;1.73;;
7497;SDS011;3790;48.806;9.140;2023-04-25T07:29:00;3.33;;;1.70;;
7497;SDS011;3790;48.806;9.140;2023-04-25T07:34:00;3.07;;;1.83;;
7497;SDS011;3790;48.806;9.140;2023-04-25T07:39:01;2.60;;;1.83;;
7497;SDS011;3790;48.806;9.140;2023-04-25T07:44:01;2.47;;;1.73;;
7497;SDS011;3790;48.806;9.140;2023-04-25T07:49:02;3.10;;;1.80;;
7497;SDS011;3790;48.806;9.140;2023-04-25T07:54:02;3.10;;;2.03;;
7497;SDS011;3790;48.806;9.140;2023-04-25T07:59:03;3.53;;;2.20;;
7497;SDS011;3790;48.806;9.140;2023-04-25T08:04:03;5.53;;;2.50;;
7497;SDS011;3790;48.806;9.140;2023-04-25T08:09:04;4.13;;;2.50;;
7497;SDS011;3790;48.806;9.140;2023-04-25T08:14:05;3.33;;;2.50;;
7497;SDS011;3790;48.806;9.140;2023-04-25T08:19:05;2.77;;;1.80;;
7497;SDS011;3790;48.806;9.140;2023-04-25T08:24:06;3.20;;;2.20;;
7497;SDS011;3790;48.806;9.140;2023-04-25T08:29:06;2.53;;;1.77;;
7497;SDS011;3790;48.806;9.140;2023-04-25T08:34:07;5.17;;;2.13;;
7497;SDS011;3790;48.806;9.140;2023-04-25T08:39:08;4.20;;;2.77;;
7497;SDS011;3790;48.806;9.140;2023-04-25T08:44:09;5.83;;;2.43;;
7497;SDS011;3790;48.806;9.140;2023-04-25T08:49:10;5.43;;;2.43;;
7497;SDS011;3790;48.806;9.140;2023-04-25T08:54:12;2.50;;;1.83;;
7497;SDS011;3790;48.806;9.140;2023-04-25T08:59:13;2.90;;;2.00;;
7497;SDS011;3790;48.806;9.140;2023-04-25T09:04:14;5.23;;;2.73;;
7497;SDS011;3790;48.806;9.140;2023-04-25T09:09:14;3.40;;;2.30;;
7497;SDS011;3790;48.806;9.140;2023-04-25T09:14:16;3.43;;;2.13;;
7497;SDS011;3790;48.806;9.140;2023-04-25T09:19:24;2.37;;;1.70;;
7497;SDS011;3790;48.806;9.140;2023-04-25T09:24:38;2.60;;;1.80;;
7497;SDS011;3790;48.806;9.140;2023-04-25T09:29:41;2.03;;;1.53;;
7497;SDS011;3790;48.806;9.140;2023-04-25T09:34:43;3.10;;;1.50;;
7497;SDS011;3790;48.806;9.140;2023-04-25T09:39:45;2.70;;;1.63;;
7497;SDS011;3790;48.806;9.140;2023-04-25T09:44:51;3.80;;;2.03;;
7497;SDS011;3790;48.806;9.140;2023-04-25T09:49:53;3.23;;;1.57;;
7497;SDS011;3790;48.806;9.140;2023-04-25T09:54:55;3.47;;;1.73;;
7497;SDS011;3790;48.806;9.140;2023-04-25T09:59:55;2.43;;;1.60;;
7497;SDS011;3790;48.806;9.140;2023-04-25T10:04:56;1.40;;;0.90;;
7497;SDS011;3790;48.806;9.140;2023-04-25T10:10:00;1.77;;;1.10;;
7497;SDS011;3790;48.806;9.140;2023-04-25T10:15:03;0.93;;;0.73;;
7497;SDS011;3790;48.806;9.140;2023-04-25T10:20:04;1.43;;;0.70;;
7497;SDS011;3790;48.806;9.140;2023-04-25T10:25:10;1.57;;;0.97;;
7497;SDS011;3790;48.806;9.140;2023-04-25T10:30:14;0.50;;;0.50;;
7497;SDS011;3790;48.806;9.140;2023-04-25T10:35:15;0.90;;;0.60;;
7497;SDS011;3790;48.806;9.140;2023-04-25T10:40:24;2.10;;;1.60;;
7497;SDS011;3790;48.806;9.140;2023-04-25T10:45:25;2.93;;;2.00;;
7497;SDS011;3790;48.806;9.140;2023-04-25T10:50:25;3.57;;;2.67;;
7497;SDS011;3790;48.806;9.140;2023-04-25T10:55:51;3.97;;;3.07;;
7497;SDS011;3790;48.806;9.140;2023-04-25T11:00:53;4.73;;;3.07;;
7497;SDS011;3790;48.806;9.140;2023-04-25T11:05:53;4.13;;;2.67;;
7497;SDS011;3790;48.806;9.140;2023-04-25T11:10:54;3.50;;;1.93;;
7497;SDS011;3790;48.806;9.140;2023-04-25T11:15:55;2.43;;;1.50;;
7497;SDS011;3790;48.806;9.140;2023-04-25T11:20:55;2.20;;;1.43;;
7497;SDS011;3790;48.806;9.140;2023-04-25T11:25:57;2.50;;;1.27;;
7497;SDS011;3790;48.806;9.140;2023-04-25T11:30:57;2.00;;;1.10;;
7497;SDS011;3790;48.806;9.140;2023-04-25T11:35:58;2.23;;;1.47;;
7497;SDS011;3790;48.806;9.140;2023-04-25T11:40:58;3.13;;;1.30;;
7497;SDS011;3790;48.806;9.140;2023-04-25T11:45:59;2.30;;;1.60;;
7497;SDS011;3790;48.806;9.140;2023-04-25T11:51:00;3.63;;;1.80;;
7497;SDS011;3790;48.806;9.140;2023-04-25T11:56:01;2.50;;;1.60;;
7497;SDS011;3790;48.806;9.140;2023-04-25T12:01:02;3.63;;;1.77;;
7497;SDS011;3790;48.806;9.140;2023-04-25T12:06:03;2.87;;;2.20;;
7497;SDS011;3790;48.806;9.140;2023-04-25T12:11:04;5.80;;;2.37;;
7497;SDS011;3790;48.806;9.140;2023-04-25T12:16:05;3.77;;;2.30;;
7497;SDS011;3790;48.806;9.140;2023-04-25T12:21:06;3.03;;;2.37;;
7497;SDS011;3790;48.806;9.140;2023-04-25T12:26:06;3.10;;;2.40;;
7497;SDS011;3790;48.806;9.140;2023-04-25T12:31:07;4.33;;;3.00;;
7497;SDS011;3790;48.806;9.140;2023-04-25T12:36:08;4.47;;;3.13;;
7497;SDS011;3790;48.806;9.140;2023-04-25T12:41:10;6.07;;;3.20;;
7497;SDS011;3790;48.806;9.140;2023-04-25T12:46:11;4.53;;;2.80;;
7497;SDS011;3790;48.806;9.140;2023-04-25T12:51:11;4.30;;;2.70;;
7497;SDS011;3790;48.806;9.140;2023-04-25T12:56:12;4.80;;;3.03;;
7497;SDS011;3790;48.806;9.140;2023-04-25T13:01:12;3.73;;;2.33;;
7497;SDS011;3790;48.806;9.140;2023-04-25T13:06:14;5.57;;;3.23;;
7497;SDS011;3790;48.806;9.140;2023-04-25T13:11:15;5.37;;;3.50;;
7497;SDS011;3790;48.806;9.140;2023-04-25T13:16:15;8.97;;;3.33;;
7497;SDS011;3790;48.806;9.140;2023-04-25T13:21:16;4.73;;;2.53;;
7497;SDS011;3790;48.806;9.140;2023-04-25T13:26:17;5.43;;;3.20;;
7497;SDS011;3790;48.806;9.140;2023-04-25T13:31:17;5.00;;;3.40;;
7497;SDS011;3790;48.806;9.140;2023-04-25T13:36:18;4.80;;;3.83;;
7497;SDS011;3790;48.806;9.140;2023-04-25T13:41:18;7.20;;;4.67;;
7497;SDS011;3790;48.806;9.140;2023-04-25T13:46:19;7.43;;;4.33;;
7497;SDS011;3790;48.806;9.140;2023-04-25T13:51:19;6.03;;;4.43;;
7497;SDS011;3790;48.806;9.140;2023-04-25T13:56:20;5.07;;;3.73;;
7497;SDS011;3790;48.806;9.140;2023-04-25T14:01:22;7.10;;;4.60;;
7497;SDS011;3790;48.806;9.140;2023-04-25T14:06:22;9.53;;;4.00;;
7497;SDS011;3790;48.806;9.140;2023-04-25T14:11:23;5.70;;;3.30;;
7497;SDS011;3790;48.806;9.140;2023-04-25T14:16:25;5.00;;;3.20;;
7497;SDS011;3790;48.806;9.140;2023-04-25T14:21:26;5.50;;;2.67;;
7497;SDS011;3790;48.806;9.140;2023-04-25T14:26:28;10.45;;;2.65;;
7497;SDS011;3790;48.806;9.140;2023-04-25T14:31:28;5.10;;;2.40;;
7497;SDS011;3790;48.806;9.140;2023-04-25T14:36:31;3.47;;;2.20;;
7497;SDS011;3790;48.806;9.140;2023-04-25T14:41:32;4.20;;;2.42;;
7497;SDS011;3790;48.806;9.140;2023-04-25T14:46:33;3.53;;;1.98;;
7497;SDS011;3790;48.806;9.140;2023-04-25T14:51:33;2.93;;;2.07;;
7497;SDS011;3790;48.806;9.140;2023-04-25T14:56:34;4.33;;;2.60;;
7497;SDS011;3790;48.806;9.140;2023-04-25T15:01:35;7.60;;;2.80;;
7497;SDS011;3790;48.806;9.140;2023-04-25T15:06:36;6.63;;;2.93;;
7497;SDS011;3790;48.806;9.140;2023-04-25T15:11:36;4.17;;;2.27;;
7497;SDS011;3790;48.806;9.140;2023-04-25T15:16:37;4.10;;;2.87;;
7497;SDS011;3790;48.806;9.140;2023-04-25T15:21:38;5.27;;;2.20;;
7497;SDS011;3790;48.806;9.140;2023-04-25T15:26:38;3.23;;;2.07;;
7497;SDS011;3790;48.806;9.140;2023-04-25T15:31:41;3.05;;;2.00;;
7497;SDS011;3790;48.806;9.140;2023-04-25T15:36:42;3.60;;;2.10;;
7497;SDS011;3790;48.806;9.140;2023-04-25T15:41:42;3.23;;;1.97;;
7497;SDS011;3790;48.806;9.140;2023-04-25T15:46:43;3.30;;;2.23;;
7497;SDS011;3790;48.806;9.140;2023-04-25T15:51:44;8.47;;;2.50;;
7497;SDS011;3790;48.806;9.140;2023-04-25T15:56:45;9.50;;;3.27;;
7497;SDS011;3790;48.806;9.140;2023-04-25T16:01:45;4.33;;;2.50;;
7497;SDS011;3790;48.806;9.140;2023-04-25T16:06:46;4.37;;;2.60;;
7497;SDS011;3790;48.806;9.140;2023-04-25T16:11:46;3.87;;;2.77;;
7497;SDS011;3790;48.806;9.140;2023-04-25T16:16:49;7.03;;;2.67;;
7497;SDS011;3790;48.806;9.140;2023-04-25T16:21:50;3.73;;;2.67;;
7497;SDS011;3790;48.806;9.140;2023-04-25T16:26:50;3.70;;;2.60;;
7497;SDS011;3790;48.806;9.140;2023-04-25T16:31:51;3.90;;;2.43;;
7497;SDS011;3790;48.806;9.140;2023-04-25T16:36:52;3.53;;;2.53;;
7497;SDS011;3790;48.806;9.140;2023-04-25T16:41:53;5.53;;;2.73;;
7497;SDS011;3790;48.806;9.140;2023-04-25T16:46:53;5.37;;;2.37;;
7497;SDS011;3790;48.806;9.140;2023-04-25T16:51:57;3.53;;;2.60;;
7497;SDS011;3790;48.806;9.140;2023-04-25T16:56:57;3.40;;;2.40;;
7497;SDS011;3790;48.806;9.140;2023-04-25T17:01:58;5.07;;;2.83;;
7497;SDS011;3790;48.806;9.140;2023-04-25T17:06:59;4.63;;;2.47;;
7497;SDS011;3790;48.806;9.140;2023-04-25T17:11:59;3.83;;;2.27;;
7497;SDS011;3790;48.806;9.140;2023-04-25T17:17:01;4.87;;;2.50;;
7497;SDS011;3790;48.806;9.140;2023-04-25T17:22:02;3.27;;;2.43;;
7497;SDS011;3790;48.806;9.140;2023-04-25T17:27:03;3.67;;;2.37;;
7497;SDS011;3790;48.806;9.140;2023-04-25T17:32:03;4.00;;;2.47;;
7497;SDS011;3790;48.806;9.140;2023-04-25T17:37:04;5.43;;;2.80;;
7497;SDS011;3790;48.806;9.140;2023-04-25T17:42:05;9.97;;;3.30;;
7497;SDS011;3790;48.806;9.140;2023-04-25T17:47:05;4.60;;;3.07;;
7497;SDS011;3790;48.806;9.140;2023-04-25T17:52:06;3.80;;;2.47;;
7497;SDS011;3790;48.806;9.140;2023-04-25T17:57:07;4.20;;;2.57;;
7497;SDS011;3790;48.806;9.140;2023-04-25T18:02:07;4.53;;;3.10;;
7497;SDS011;3790;48.806;9.140;2023-04-25T18:07:09;8.47;;;4.40;;
7497;SDS011;3790;48.806;9.140;2023-04-25T18:12:10;5.37;;;4.03;;
7497;SDS011;3790;48.806;9.140;2023-04-25T18:17:10;6.33;;;4.23;;
7497;SDS011;3790;48.806;9.140;2023-04-25T18:22:11;5.27;;;3.83;;
7497;SDS011;3790;48.806;9.140;2023-04-25T18:27:11;6.07;;;4.10;;
7497;SDS011;3790;48.806;9.140;2023-04-25T18:32:12;4.27;;;3.30;;
7497;SDS011;3790;48.806;9.140;2023-04-25T18:37:13;4.20;;;3.20;;
7497;SDS011;3790;48.806;9.140;2023-04-25T18:42:13;4.63;;;2.77;;
7497;SDS011;3790;48.806;9.140;2023-04-25T18:47:15;8.37;;;3.43;;
7497;SDS011;3790;48.806;9.140;2023-04-25T18:52:15;4.30;;;3.23;;
7497;SDS011;3790;48.806;9.140;2023-04-25T18:57:16;5.30;;;3.40;;
7497;SDS011;3790;48.806;9.140;2023-04-25T19:02:17;6.53;;;4.33;;
7497;SDS011;3790;48.806;9.140;2023-04-25T19:07:17;5.70;;;3.97;;
7497;SDS011;3790;48.806;9.140;2023-04-25T19:12:19;5.80;;;3.67;;
7497;SDS011;3790;48.806;9.140;2023-04-25T19:17:20;5.87;;;3.40;;
7497;SDS011;3790;48.806;9.140;2023-04-25T19:22:21;5.63;;;4.30;;
7497;SDS011;3790;48.806;9.140;2023-04-25T19:27:22;5.77;;;4.30;;
7497;SDS011;3790;48.806;9.140;2023-04-25T19:32:23;7.47;;;4.33;;
7497;SDS011;3790;48.806;9.140;2023-04-25T19:37:24;7.70;;;4.10;;
7497;SDS011;3790;48.806;9.140;2023-04-25T19:42:27;4.87;;;3.83;;
7497;SDS011;3790;48.806;9.140;2023-04-25T19:47:27;5.57;;;3.83;;
7497;SDS011;3790;48.806;9.140;2023-04-25T19:52:28;5.30;;;3.77;;
7497;SDS011;3790;48.806;9.140;2023-04-25T19:57:33;9.00;;;5.53;;
7497;SDS011;3790;48.806;9.140;2023-04-25T20:02:36;5.77;;;4.47;;
7497;SDS011;3790;48.806;9.140;2023-04-25T20:07:37;6.90;;;4.53;;
7497;SDS011;3790;48.806;9.140;2023-04-25T20:12:37;6.73;;;4.20;;
7497;SDS011;3790;48.806;9.140;2023-04-25T20:17:41;5.37;;;3.43;;
7497;SDS011;3790;48.806;9.140;2023-04-25T20:22:41;4.43;;;2.77;;
7497;SDS011;3790;48.806;9.140;2023-04-25T20:27:42;5.77;;;3.07;;
7497;SDS011;3790;48.806;9.140;2023-04-25T20:32:42;6.13;;;3.13;;
7497;SDS011;3790;48.806;9.140;2023-04-25T20:37:43;5.90;;;3.00;;
7497;SDS011;3790;48.806;9.140;2023-04-25T20:42:44;7.23;;;2.93;;
7497;SDS011;3790;48.806;9.140;2023-04-25T20:47:47;3.80;;;3.13;;
7497;SDS011;3790;48.806;9.140;2023-04-25T20:52:47;4.53;;;3.20;;
7497;SDS011;3790;48.806;9.140;2023-04-25T20:57:48;5.40;;;3.13;;
7497;SDS011;3790;48.806;9.140;2023-04-25T21:02:49;4.07;;;2.90;;
7497;SDS011;3790;48.806;9.140;2023-04-25T21:07:51;9.27;;;2.80;;
7497;SDS011;3790;48.806;9.140;2023-04-25T21:12:52;3.87;;;2.77;;
7497;SDS011;3790;48.806;9.140;2023-04-25T21:17:54;6.03;;;3.67;;
7497;SDS011;3790;48.806;9.140;2023-04-25T21:22:54;4.47;;;2.63;;
7497;SDS011;3790;48.806;9.140;2023-04-25T21:27:55;4.50;;;2.67;;
7497;SDS011;3790;48.806;9.140;2023-04-25T21:32:57;4.70;;;3.07;;
7497;SDS011;3790;48.806;9.140;2023-04-25T21:37:57;5.70;;;3.17;;
7497;SDS011;3790;48.806;9.140;2023-04-25T21:42:58;5.50;;;3.37;;
7497;SDS011;3790;48.806;9.140;2023-04-25T21:47:58;5.50;;;3.60;;
7497;SDS011;3790;48.806;9.140;2023-04-25T21:53:00;5.23;;;3.23;;
7497;SDS011;3790;48.806;9.140;2023-04-25T21:58:00;5.17;;;3.33;;
7497;SDS011;3790;48.806;9.140;2023-04-25T22:03:01;4.03;;;2.77;;
7497;SDS011;3790;48.806;9.140;2023-04-25T22:08:02;7.10;;;3.37;;
7497;SDS011;3790;48.806;9.140;2023-04-25T22:13:06;4.93;;;3.87;;
7497;SDS011;3790;48.806;9.140;2023-04-25T22:18:06;6.03;;;3.00;;
7497;SDS011;3790;48.806;9.140;2023-04-25T22:23:07;4.53;;;3.33;;
7497;SDS011;3790;48.806;9.140;2023-04-25T22:28:08;4.57;;;3.30;;
7497;SDS011;3790;48.806;9.140;2023-04-25T22:33:09;6.67;;;3.90;;
7497;SDS011;3790;48.806;9.140;2023-04-25T22:38:10;7.00;;;3.63;;
7497;SDS011;3790;48.806;9.140;2023-04-25T22:43:10;5.77;;;3.97;;
7497;SDS011;3790;48.806;9.140;2023-04-25T22:48:11;4.97;;;3.40;;
7497;SDS011;3790;48.806;9.140;2023-04-25T22:53:11;5.03;;;3.27;;
7497;SDS011;3790;48.806;9.140;2023-04-25T22:58:12;6.63;;;3.83;;
7497;SDS011;3790;48.806;9.140;2023-04-25T23:03:13;5.53;;;3.70;;
7497;SDS011;3790;48.806;9.140;2023-04-25T23:08:14;7.23;;;3.03;;
7497;SDS011;3790;48.806;9.140;2023-04-25T23:13:16;6.47;;;3.73;;
7497;SDS011;3790;48.806;9.140;2023-04-25T23:18:16;5.07;;;3.20;;
7497;SDS011;3790;48.806;9.140;2023-04-25T23:23:17;6.43;;;3.80;;
7497;SDS011;3790;48.806;9.140;2023-04-25T23:28:17;5.53;;;3.20;;
7497;SDS011;3790;48.806;9.140;2023-04-25T23:33:18;6.13;;;3.57;;
7497;SDS011;3790;48.806;9.140;2023-04-25T23:38:19;5.77;;;3.47;;
7497;SDS011;3790;48.806;9.140;2023-04-25T23:43:20;8.27;;;3.90;;
7497;SDS011;3790;48.806;9.140;2023-04-25T23:48:20;4.97;;;3.43;;
7497;SDS011;3790;48.806;9.140;2023-04-25T23:53:21;5.00;;;3.00;;
7497;SDS011;3790;48.806;9.140;2023-04-25T23:58:22;4.23;;;3.20;;
